Time;durP1;ratioP1;P1;durP2;ratioP2;P2;SDS_P1;SDS_P2;PMS_P1;PMS_P2;Temp;Humidity;BMP_temperature;BMP_pressure;BME280_temperature;BME280_humidity;BME280_pressure;Samples;Min_cycle;Max_cycle;Signal;HPM_P1;HPM_P2
2021/04/25 00:04:33;;;;;;;8.60;6.20;;;11.50;57.30;;;;;;4804635;29;20496;-86
2021/04/25 00:11:27;;;;;;;8.50;5.73;;;11.40;58.10;;;;;;4952620;29;20516;-86
2021/04/25 01:09:08;;;;;;;15.10;7.13;;;10.80;61.80;;;;;;5035381;28;20460;-85
2021/04/25 01:11:34;;;;;;;10.27;5.60;;;10.80;62.00;;;;;;5039490;28;20426;-86
2021/04/25 01:14:01;;;;;;;6.40;5.20;;;10.70;62.50;;;;;;5039293;28;20434;-85
2021/04/25 01:16:28;;;;;;;8.00;6.20;;;10.70;62.90;;;;;;5039163;28;20430;-85
2021/04/25 01:18:55;;;;;;;8.50;5.90;;;10.60;62.90;;;;;;5039775;28;20481;-85
2021/04/25 01:21:22;;;;;;;9.70;6.30;;;10.50;63.10;;;;;;5038967;28;20438;-86
2021/04/25 01:23:49;;;;;;;12.53;6.93;;;10.50;63.40;;;;;;5036920;28;20441;-86
2021/04/25 01:26:16;;;;;;;9.90;6.57;;;10.40;63.30;;;;;;5035662;28;20476;-86
2021/04/25 01:28:42;;;;;;;7.70;5.03;;;10.40;63.40;;;;;;5037121;28;20451;-85
2021/04/25 01:31:09;;;;;;;8.23;5.87;;;10.40;64.30;;;;;;5040069;28;20438;-85
2021/04/25 01:33:35;;;;;;;7.83;5.33;;;10.40;63.80;;;;;;5039569;28;20426;-87
2021/04/25 01:36:02;;;;;;;9.97;6.00;;;10.30;63.80;;;;;;5028096;28;20522;-86
2021/04/25 01:38:29;;;;;;;8.63;5.83;;;10.30;64.10;;;;;;5038755;28;20478;-85
2021/04/25 01:40:55;;;;;;;7.87;5.33;;;10.30;64.20;;;;;;5023087;28;20434;-87
2021/04/25 01:43:21;;;;;;;6.13;5.50;;;10.30;64.40;;;;;;5016745;28;20815;-87
2021/04/25 01:45:48;;;;;;;7.60;6.00;;;10.30;64.30;;;;;;5015705;28;20454;-86
2021/04/25 01:48:15;;;;;;;10.17;5.93;;;10.30;64.50;;;;;;5015281;28;20470;-86
2021/04/25 01:50:42;;;;;;;6.40;5.70;;;10.30;64.60;;;;;;5015277;28;20950;-87
2021/04/25 01:53:10;;;;;;;5.73;4.60;;;10.20;64.80;;;;;;5015219;28;20446;-87
2021/04/25 01:55:38;;;;;;;6.83;5.30;;;10.10;64.90;;;;;;5025729;28;20438;-85
2021/04/25 01:58:05;;;;;;;6.60;5.27;;;10.10;64.90;;;;;;5038123;28;20495;-85
2021/04/25 02:00:35;;;;;;;8.10;5.93;;;10.20;65.10;;;;;;5037961;28;20439;-86
2021/04/25 02:03:02;;;;;;;9.27;5.37;;;10.20;65.20;;;;;;5028327;28;20985;-86
2021/04/25 02:05:28;;;;;;;7.20;5.70;;;10.20;65.30;;;;;;5037153;28;20438;-86
2021/04/25 02:07:55;;;;;;;7.37;4.80;;;10.10;65.50;;;;;;5035775;28;20480;-86
2021/04/25 02:10:22;;;;;;;8.17;5.40;;;10.10;65.80;;;;;;5035837;28;20442;-87
2021/04/25 02:12:50;;;;;;;9.80;6.40;;;10.10;66.20;;;;;;5018915;28;20442;-87
2021/04/25 02:15:17;;;;;;;8.63;5.67;;;10.00;66.30;;;;;;5016994;28;20835;-87
2021/04/25 02:17:44;;;;;;;6.87;6.07;;;9.90;67.70;;;;;;5014555;28;20494;-87
2021/04/25 02:20:11;;;;;;;7.60;5.00;;;9.90;67.90;;;;;;5014317;28;20481;-87
2021/04/25 02:22:38;;;;;;;8.93;6.70;;;9.80;67.90;;;;;;5014096;28;20454;-86
2021/04/25 02:25:06;;;;;;;7.63;5.20;;;9.70;68.50;;;;;;5013599;28;20504;-86
2021/04/25 02:27:33;;;;;;;9.50;5.70;;;9.70;69.10;;;;;;5014225;28;20470;-87
2021/04/25 02:30:00;;;;;;;6.63;5.50;;;9.60;69.50;;;;;;5013874;28;20443;-87
2021/04/25 02:32:26;;;;;;;8.13;5.33;;;9.60;69.90;;;;;;5014031;28;20446;-87
2021/04/25 02:34:52;;;;;;;8.63;6.63;;;9.60;69.80;;;;;;5013800;28;20453;-87
2021/04/25 02:37:19;;;;;;;9.00;5.40;;;9.60;69.90;;;;;;5014033;28;20478;-87
2021/04/25 02:39:45;;;;;;;7.90;6.23;;;9.50;69.70;;;;;;5013436;28;20457;-87
2021/04/25 02:42:11;;;;;;;9.27;6.37;;;9.50;69.90;;;;;;5014448;28;20453;-86
2021/04/25 02:44:38;;;;;;;8.47;5.73;;;9.50;69.30;;;;;;5026910;28;20450;-85
2021/04/25 02:47:05;;;;;;;7.27;5.80;;;9.60;69.80;;;;;;5035673;28;20454;-87
2021/04/25 02:49:31;;;;;;;8.73;6.27;;;9.60;69.70;;;;;;5033236;28;20430;-86
2021/04/25 02:51:57;;;;;;;8.57;6.40;;;9.60;69.30;;;;;;5015007;28;20445;-87
2021/04/25 02:54:23;;;;;;;10.93;6.20;;;9.60;69.10;;;;;;5013825;28;20457;-87
2021/04/25 02:56:50;;;;;;;9.97;6.40;;;9.50;69.30;;;;;;5013923;28;20466;-87
2021/04/25 02:59:16;;;;;;;7.97;6.33;;;9.50;69.80;;;;;;5014090;28;20450;-87
2021/04/25 03:01:42;;;;;;;8.27;6.10;;;9.50;69.40;;;;;;5014384;28;20828;-87
2021/04/25 03:04:09;;;;;;;7.40;5.63;;;9.40;69.40;;;;;;5013961;28;20955;-87
2021/04/25 03:06:35;;;;;;;6.83;5.00;;;9.30;70.00;;;;;;5036201;28;20422;-86
2021/04/25 03:09:02;;;;;;;5.90;5.27;;;9.30;70.40;;;;;;5019698;28;20465;-86
2021/04/25 03:11:29;;;;;;;8.40;6.30;;;9.30;70.20;;;;;;5013817;28;20454;-87
2021/04/25 03:13:55;;;;;;;7.50;5.20;;;9.20;70.10;;;;;;5013718;28;20954;-87
2021/04/25 03:16:21;;;;;;;8.07;6.43;;;9.20;70.60;;;;;;5025053;28;20497;-86
2021/04/25 03:18:47;;;;;;;8.93;6.30;;;9.00;70.70;;;;;;5034439;28;20501;-86
2021/04/25 03:21:15;;;;;;;10.73;7.50;;;8.90;71.60;;;;;;5025657;28;20464;-87
2021/04/25 03:23:41;;;;;;;8.07;6.30;;;8.80;72.00;;;;;;5021442;28;21002;-87
2021/04/25 03:26:07;;;;;;;8.10;6.10;;;8.80;72.30;;;;;;5014792;28;20461;-87
2021/04/25 03:28:33;;;;;;;10.50;7.00;;;8.90;72.60;;;;;;5010734;28;20485;-88
2021/04/25 03:31:02;;;;;;;6.10;5.50;;;8.90;72.00;;;;;;5020938;28;20430;-86
2021/04/25 03:33:28;;;;;;;10.20;6.77;;;9.00;72.00;;;;;;5036843;28;20425;-86
2021/04/25 03:35:54;;;;;;;7.10;5.53;;;9.10;71.40;;;;;;5033218;28;20434;-86
2021/04/25 03:38:21;;;;;;;8.30;6.50;;;9.10;71.20;;;;;;5035615;28;20467;-86
2021/04/25 03:40:48;;;;;;;9.60;6.30;;;9.20;71.50;;;;;;5013452;28;20506;-88
2021/04/25 03:43:14;;;;;;;9.17;6.67;;;9.10;71.50;;;;;;5012540;28;20450;-87
2021/04/25 03:45:40;;;;;;;7.67;5.83;;;9.20;71.80;;;;;;5014170;28;20454;-87
2021/04/25 03:48:07;;;;;;;9.00;6.30;;;9.10;71.40;;;;;;5015536;28;20466;-86
2021/04/25 03:50:33;;;;;;;8.70;6.77;;;9.00;71.40;;;;;;5014259;28;20447;-86
2021/04/25 03:53:02;;;;;;;8.10;6.53;;;9.00;71.60;;;;;;5018613;28;20499;-86
2021/04/25 03:55:29;;;;;;;10.03;6.33;;;8.90;71.80;;;;;;5017709;28;20472;-85
2021/04/25 03:57:57;;;;;;;8.87;6.90;;;9.00;71.80;;;;;;5017480;28;20867;-86
2021/04/25 04:00:23;;;;;;;9.70;5.77;;;9.00;71.70;;;;;;5018002;28;20465;-86
2021/04/25 04:02:52;;;;;;;11.53;7.40;;;9.00;72.10;;;;;;5017958;28;20508;-87
2021/04/25 04:05:18;;;;;;;10.60;6.20;;;8.90;72.00;;;;;;5017853;28;20446;-86
2021/04/25 04:07:44;;;;;;;11.60;7.20;;;8.90;72.10;;;;;;5031020;28;20480;-86
2021/04/25 04:10:12;;;;;;;10.37;6.70;;;8.90;72.30;;;;;;5031964;28;20434;-84
2021/04/25 04:12:40;;;;;;;7.73;6.57;;;8.80;72.50;;;;;;5040875;28;20480;-83
2021/04/25 04:15:07;;;;;;;7.73;6.30;;;8.80;72.70;;;;;;5029009;28;20458;-85
2021/04/25 04:17:33;;;;;;;9.30;6.30;;;8.80;72.50;;;;;;5030705;28;20465;-83
2021/04/25 04:19:59;;;;;;;8.03;6.23;;;8.80;72.80;;;;;;5035517;28;20438;-85
2021/04/25 04:22:26;;;;;;;8.10;6.37;;;8.80;73.00;;;;;;5017223;28;20922;-85
2021/04/25 04:24:52;;;;;;;9.77;6.80;;;8.80;73.30;;;;;;5017283;28;20485;-86
2021/04/25 04:27:18;;;;;;;10.83;6.73;;;8.70;73.30;;;;;;5017125;28;20469;-85
2021/04/25 04:29:45;;;;;;;7.23;5.80;;;8.80;73.70;;;;;;5016864;28;20477;-85
2021/04/25 04:32:12;;;;;;;8.47;6.73;;;8.80;73.70;;;;;;5016928;28;20450;-85
2021/04/25 04:34:38;;;;;;;6.10;5.50;;;8.60;74.10;;;;;;5016648;28;20454;-86
2021/04/25 04:37:04;;;;;;;8.50;7.37;;;8.60;74.10;;;;;;5016516;28;20466;-86
2021/04/25 04:39:31;;;;;;;10.50;7.00;;;8.70;74.10;;;;;;5016362;28;20451;-85
2021/04/25 04:41:57;;;;;;;10.70;7.37;;;8.70;74.20;;;;;;5016916;28;20506;-85
2021/04/25 04:44:23;;;;;;;8.80;6.97;;;8.70;74.10;;;;;;5016789;28;20453;-85
2021/04/25 04:46:51;;;;;;;9.23;6.70;;;8.70;74.30;;;;;;5018852;28;20532;-84
2021/04/25 04:49:17;;;;;;;9.93;6.60;;;8.90;74.00;;;;;;5037261;28;20446;-85
2021/04/25 04:51:43;;;;;;;11.07;7.47;;;9.10;73.60;;;;;;5034119;28;20458;-85
2021/04/25 04:54:10;;;;;;;11.10;7.10;;;9.30;72.80;;;;;;5019775;28;20461;-85
2021/04/25 04:56:36;;;;;;;7.70;6.90;;;9.60;71.90;;;;;;5034687;28;20437;-84
2021/04/25 04:59:02;;;;;;;9.23;6.20;;;9.90;71.10;;;;;;5039242;28;20486;-85
2021/04/25 05:01:29;;;;;;;8.10;5.70;;;10.00;68.80;;;;;;5032779;28;20453;-85
2021/04/25 05:03:56;;;;;;;8.53;6.10;;;10.30;68.00;;;;;;5024593;28;20430;-85
2021/04/25 05:06:22;;;;;;;7.57;6.83;;;10.60;67.20;;;;;;5026242;28;20466;-86
2021/04/25 05:08:48;;;;;;;10.67;6.50;;;10.80;66.20;;;;;;5017713;28;20481;-85
2021/04/25 05:11:14;;;;;;;12.80;8.43;;;11.20;64.80;;;;;;5017123;28;20458;-85
2021/04/25 05:13:40;;;;;;;9.40;6.50;;;11.30;63.80;;;;;;5016671;28;20434;-86
2021/04/25 05:16:07;;;;;;;10.00;6.90;;;11.70;62.80;;;;;;5019961;28;20466;-86
2021/04/25 05:18:33;;;;;;;10.30;7.83;;;11.90;61.70;;;;;;5037002;28;20486;-85
2021/04/25 05:21:00;;;;;;;7.70;6.40;;;12.10;61.10;;;;;;5025231;28;20478;-86
2021/04/25 05:23:26;;;;;;;9.17;7.00;;;12.20;60.20;;;;;;5033762;28;20450;-85
2021/04/25 05:25:53;;;;;;;7.50;5.93;;;12.10;59.90;;;;;;5021695;28;20449;-86
2021/04/25 05:28:19;;;;;;;8.47;7.00;;;12.20;59.80;;;;;;5030814;28;20485;-85
2021/04/25 05:30:45;;;;;;;10.23;7.53;;;12.40;59.70;;;;;;5022909;28;20457;-86
2021/04/25 05:33:11;;;;;;;7.63;6.83;;;12.80;59.00;;;;;;5016968;28;20459;-86
2021/04/25 05:35:38;;;;;;;7.77;6.93;;;13.00;58.10;;;;;;5034544;28;20447;-86
2021/04/25 05:38:05;;;;;;;8.30;7.40;;;13.10;57.80;;;;;;5037261;28;20504;-86
2021/04/25 05:40:31;;;;;;;8.40;7.50;;;13.10;57.60;;;;;;5032998;28;20943;-87
2021/04/25 05:42:58;;;;;;;8.53;7.63;;;13.00;57.50;;;;;;5016379;28;20570;-87
2021/04/25 05:45:24;;;;;;;9.63;7.77;;;13.00;57.60;;;;;;5036148;28;20428;-85
2021/04/25 05:47:52;;;;;;;8.83;7.33;;;13.40;57.40;;;;;;5036068;28;20467;-85
2021/04/25 05:50:20;;;;;;;8.43;7.33;;;13.70;56.60;;;;;;5037664;28;20494;-84
2021/04/25 05:52:47;;;;;;;9.70;7.80;;;14.10;56.10;;;;;;5038029;28;20462;-84
2021/04/25 05:55:15;;;;;;;9.27;7.00;;;14.30;55.20;;;;;;5037173;28;20474;-84
2021/04/25 05:57:42;;;;;;;10.53;7.43;;;14.40;55.00;;;;;;5027408;28;20539;-86
2021/04/25 06:00:11;;;;;;;11.80;8.20;;;14.90;54.70;;;;;;5016338;28;20458;-85
2021/04/25 06:02:37;;;;;;;11.20;8.40;;;15.40;53.80;;;;;;5017217;28;20865;-85
2021/04/25 06:05:05;;;;;;;9.03;8.13;;;15.80;52.80;;;;;;5021627;28;20468;-84
2021/04/25 06:07:31;;;;;;;9.03;8.10;;;16.10;51.60;;;;;;5023095;28;20482;-86
2021/04/25 06:09:58;;;;;;;9.90;8.50;;;15.90;51.30;;;;;;5018396;28;20439;-86
2021/04/25 06:12:26;;;;;;;9.93;8.10;;;16.00;52.00;;;;;;5016089;28;20455;-86
2021/04/25 06:14:53;;;;;;;9.77;8.60;;;16.30;51.50;;;;;;5015508;28;20457;-87
2021/04/25 06:17:20;;;;;;;9.00;8.20;;;16.70;50.90;;;;;;5015087;28;20474;-86
2021/04/25 06:19:46;;;;;;;10.10;8.47;;;17.10;49.90;;;;;;5014568;28;20454;-85
2021/04/25 06:22:14;;;;;;;11.23;9.00;;;17.50;49.00;;;;;;5015444;28;20486;-86
2021/04/25 06:24:41;;;;;;;9.60;8.57;;;18.00;48.40;;;;;;5016215;28;20454;-86
2021/04/25 06:27:08;;;;;;;10.53;9.20;;;18.60;47.30;;;;;;5013960;28;20558;-86
2021/04/25 06:29:36;;;;;;;11.17;9.30;;;18.70;46.30;;;;;;5015507;28;20454;-87
2021/04/25 06:32:03;;;;;;;10.00;9.10;;;18.70;46.00;;;;;;5014068;28;20454;-86
2021/04/25 06:34:29;;;;;;;9.90;8.90;;;18.90;46.30;;;;;;5014956;28;20548;-86
2021/04/25 06:36:56;;;;;;;10.30;9.30;;;19.00;45.40;;;;;;5014164;28;20470;-86
2021/04/25 06:39:23;;;;;;;12.50;10.33;;;19.50;45.40;;;;;;5014215;28;20546;-86
2021/04/25 06:41:50;;;;;;;13.30;10.00;;;19.80;44.50;;;;;;5013676;28;20458;-87
2021/04/25 06:44:17;;;;;;;10.47;9.40;;;20.10;43.90;;;;;;5009704;28;20991;-86
2021/04/25 06:46:45;;;;;;;10.77;9.60;;;20.50;43.30;;;;;;5022464;28;20446;-84
2021/04/25 06:49:12;;;;;;;15.43;10.07;;;20.80;42.70;;;;;;5024212;28;20523;-87
2021/04/25 06:51:39;;;;;;;12.07;10.87;;;21.00;42.80;;;;;;5014032;28;20456;-87
2021/04/25 06:54:09;;;;;;;11.73;9.93;;;21.40;42.10;;;;;;5003395;28;20449;-87
2021/04/25 06:56:37;;;;;;;12.20;10.37;;;21.70;41.20;;;;;;5002910;28;20454;-88
2021/04/25 06:59:04;;;;;;;11.50;10.03;;;21.60;40.90;;;;;;5012019;28;20504;-88
2021/04/25 07:01:31;;;;;;;13.70;12.23;;;21.80;40.90;;;;;;5030980;28;20431;-87
2021/04/25 07:03:59;;;;;;;12.77;11.50;;;21.90;40.40;;;;;;5018610;28;20537;-87
2021/04/25 07:06:26;;;;;;;12.67;11.50;;;21.70;40.10;;;;;;5017619;28;20440;-87
2021/04/25 07:08:54;;;;;;;10.37;9.37;;;21.70;40.90;;;;;;5027760;28;20471;-87
2021/04/25 07:11:21;;;;;;;12.83;11.10;;;21.90;40.50;;;;;;5020273;28;20468;-87
2021/04/25 07:13:48;;;;;;;12.27;10.90;;;22.10;40.20;;;;;;5022036;28;20454;-87
2021/04/25 07:16:15;;;;;;;12.33;10.90;;;22.40;40.30;;;;;;5014658;28;20450;-87
2021/04/25 07:18:41;;;;;;;12.80;11.03;;;22.70;39.40;;;;;;5013939;28;20471;-87
2021/04/25 07:21:09;;;;;;;11.70;10.60;;;22.80;39.20;;;;;;5028489;28;20432;-87
2021/04/25 07:23:38;;;;;;;11.40;10.30;;;23.10;39.10;;;;;;5010307;28;20428;-87
2021/04/25 07:26:05;;;;;;;11.50;10.40;;;23.70;38.40;;;;;;5004501;28;20452;-87
2021/04/25 07:34:48;;;;;;;13.07;11.10;;;23.60;38.10;;;;;;5019256;28;20461;-87
2021/04/25 10:21:57;;;;;;;;;;;;;;;;;;;;;
2021/04/25 10:25:26;;;;;;;;;;;;;;;;;;;;;
2021/04/25 10:57:36;;;;;;;11.80;8.77;;;33.70;22.80;;;;;;5068618;28;21025;-89
2021/04/25 11:04:33;;;;;;;8.70;7.80;;;32.90;23.80;;;;;;4991160;28;20453;-90
2021/04/25 11:11:33;;;;;;;;;;;;;;;;;;;;;
2021/04/25 11:14:53;;;;;;;8.17;7.37;;;34.70;22.80;;;;;;5000106;28;20535;-89
2021/04/25 11:17:36;;;;;;;9.33;7.97;;;34.20;23.10;;;;;;5053397;28;20474;-89
2021/04/25 11:20:33;;;;;;;13.93;7.50;;;32.90;23.20;;;;;;5074370;28;20448;-90
2021/04/25 11:26:39;;;;;;;7.10;6.40;;;30.90;25.00;;;;;;5054135;22;20499;-83
2021/04/25 11:29:07;;;;;;;6.87;6.17;;;31.70;24.50;;;;;;5070502;28;20425;-81
2021/04/25 11:31:58;;;;;;;7.93;6.77;;;32.10;24.10;;;;;;5071403;28;20456;-81
2021/04/25 11:34:57;;;;;;;6.77;6.17;;;33.20;23.40;;;;;;5035077;28;20507;-83
2021/04/25 11:37:25;;;;;;;6.67;6.00;;;34.10;22.00;;;;;;5074676;28;20440;-82
2021/04/25 11:39:53;;;;;;;7.40;6.70;;;34.40;21.70;;;;;;5070912;28;20490;-83
2021/04/25 11:42:28;;;;;;;7.50;6.73;;;35.00;21.40;;;;;;5066573;28;20445;-83
2021/04/25 11:44:56;;;;;;;5.87;5.17;;;35.40;20.90;;;;;;5064540;28;20448;-83
2021/04/25 11:47:24;;;;;;;6.33;5.70;;;34.80;21.20;;;;;;5069726;28;21006;-83
2021/04/25 11:49:52;;;;;;;7.20;5.60;;;34.80;21.60;;;;;;5070892;28;20432;-81
2021/04/25 11:52:21;;;;;;;6.67;6.10;;;35.40;20.90;;;;;;5067122;28;20436;-80
2021/04/25 11:54:49;;;;;;;7.70;5.63;;;32.20;21.20;;;;;;5075162;28;20466;-82
2021/04/25 11:57:17;;;;;;;7.63;6.83;;;28.80;23.90;;;;;;5068054;28;20485;-84
2021/04/25 11:59:54;;;;;;;8.03;6.03;;;28.50;25.10;;;;;;5067817;28;20507;-85
2021/04/25 12:02:21;;;;;;;6.27;5.67;;;29.00;24.80;;;;;;5069263;28;20433;-83
2021/04/25 12:04:49;;;;;;;5.87;5.23;;;29.70;24.40;;;;;;5070558;28;20458;-83
2021/04/25 12:07:34;;;;;;;7.20;4.87;;;30.00;24.90;;;;;;5065486;28;20465;-84
2021/04/25 12:10:01;;;;;;;6.00;5.40;;;31.40;23.40;;;;;;5056580;28;20471;-84
2021/04/25 12:12:28;;;;;;;7.33;5.33;;;32.50;22.80;;;;;;5059655;28;20444;-85
2021/04/25 12:15:03;;;;;;;7.20;5.53;;;32.40;22.20;;;;;;5060460;28;20466;-84
2021/04/25 12:17:30;;;;;;;4.93;4.50;;;32.30;21.50;;;;;;5060052;28;20482;-85
2021/04/25 12:20:00;;;;;;;4.40;4.00;;;32.90;22.10;;;;;;5059122;28;20850;-84
2021/04/25 12:22:26;;;;;;;7.47;5.43;;;33.50;21.60;;;;;;5060083;28;20494;-85
2021/04/25 12:24:56;;;;;;;4.60;4.20;;;34.10;21.30;;;;;;5062259;28;20834;-83
2021/04/25 12:27:22;;;;;;;9.63;5.90;;;34.40;20.30;;;;;;5061793;28;20468;-84
2021/04/25 12:29:49;;;;;;;5.03;4.30;;;34.20;20.50;;;;;;5061831;28;20469;-84
2021/04/25 12:32:19;;;;;;;5.47;4.53;;;33.00;20.70;;;;;;5058791;28;20448;-85
2021/04/25 12:34:57;;;;;;;4.70;4.00;;;32.80;21.00;;;;;;5059241;28;20467;-84
2021/04/25 12:37:37;;;;;;;4.83;4.30;;;33.30;20.50;;;;;;5064727;28;20515;-85
2021/04/25 12:40:06;;;;;;;4.77;4.37;;;31.20;21.70;;;;;;5062323;28;20443;-84
2021/04/25 12:42:32;;;;;;;5.47;3.73;;;31.60;21.80;;;;;;5065079;28;20436;-83
2021/04/25 12:44:59;;;;;;;4.77;4.20;;;31.80;20.70;;;;;;5070154;28;20439;-85
2021/04/25 12:47:30;;;;;;;4.77;4.37;;;31.90;20.50;;;;;;5069752;28;20519;-83
2021/04/25 12:50:12;;;;;;;4.03;3.73;;;30.10;21.50;;;;;;5064320;28;20431;-85
2021/04/25 12:52:45;;;;;;;4.53;4.13;;;31.10;21.60;;;;;;5063900;28;20449;-82
2021/04/25 12:55:11;;;;;;;4.67;3.70;;;31.80;20.40;;;;;;5058626;28;20932;-84
2021/04/25 12:57:37;;;;;;;4.73;3.70;;;31.60;20.50;;;;;;5059430;28;20452;-84
2021/04/25 13:00:26;;;;;;;4.67;4.27;;;32.00;20.50;;;;;;5059439;28;20439;-84
2021/04/25 13:02:52;;;;;;;5.07;4.00;;;32.30;19.80;;;;;;5063336;28;20459;-84
2021/04/25 13:05:19;;;;;;;3.80;3.50;;;32.30;20.00;;;;;;5058076;28;20443;-84
2021/04/25 13:07:48;;;;;;;3.73;3.43;;;32.30;19.90;;;;;;5059827;28;20533;-85
2021/04/25 13:10:18;;;;;;;6.63;4.97;;;33.70;19.50;;;;;;5058732;28;20440;-84
2021/04/25 13:12:46;;;;;;;4.70;3.53;;;33.30;18.80;;;;;;5059275;28;20897;-84
2021/04/25 13:15:17;;;;;;;5.63;4.93;;;33.90;18.30;;;;;;5060310;28;20449;-82
2021/04/25 13:17:52;;;;;;;4.97;3.50;;;34.40;18.00;;;;;;5065171;28;20452;-83
2021/04/25 13:20:23;;;;;;;5.27;4.70;;;33.60;18.50;;;;;;5061502;28;20451;-83
2021/04/25 13:22:58;;;;;;;3.40;3.10;;;32.50;18.20;;;;;;5059775;28;20463;-83
2021/04/25 13:25:27;;;;;;;4.90;3.97;;;32.60;18.60;;;;;;5056148;28;20448;-83
2021/04/25 13:27:56;;;;;;;4.77;4.33;;;32.70;18.70;;;;;;5060509;28;20593;-82
2021/04/25 13:30:23;;;;;;;3.63;3.30;;;33.10;18.40;;;;;;5057306;28;20472;-82
2021/04/25 13:32:50;;;;;;;3.27;3.00;;;33.20;18.20;;;;;;5057944;28;20441;-83
2021/04/25 13:35:17;;;;;;;3.93;3.50;;;33.00;17.70;;;;;;5067625;28;20413;-80
2021/04/25 13:37:45;;;;;;;3.80;3.43;;;33.30;17.50;;;;;;5072073;28;20464;-81
2021/04/25 13:40:12;;;;;;;3.93;3.57;;;33.70;18.00;;;;;;5070011;28;20459;-81
2021/04/25 13:42:38;;;;;;;5.50;4.03;;;33.10;18.10;;;;;;5066638;28;20478;-82
2021/04/25 13:45:05;;;;;;;4.63;3.50;;;33.30;18.10;;;;;;5063130;28;20460;-82
2021/04/25 13:47:31;;;;;;;4.43;3.53;;;32.80;18.30;;;;;;5062792;28;20476;-83
2021/04/25 13:49:58;;;;;;;4.30;3.90;;;32.60;19.00;;;;;;5062657;28;20789;-83
2021/04/25 13:52:24;;;;;;;4.13;3.73;;;33.10;19.30;;;;;;5063411;28;20478;-83
2021/04/25 13:54:51;;;;;;;4.90;3.43;;;32.60;19.00;;;;;;5059983;28;20440;-83
2021/04/25 13:57:20;;;;;;;5.23;4.03;;;32.90;19.60;;;;;;5062422;28;20475;-84
2021/04/25 13:59:46;;;;;;;4.97;3.40;;;33.20;19.10;;;;;;5064655;28;20480;-83
2021/04/25 14:02:12;;;;;;;3.73;3.07;;;32.70;18.80;;;;;;5066156;28;20452;-83
2021/04/25 14:04:39;;;;;;;4.90;3.47;;;32.40;19.10;;;;;;5065257;28;21006;-82
2021/04/25 14:07:05;;;;;;;4.80;3.90;;;32.70;19.10;;;;;;5068703;28;20456;-80
2021/04/25 14:09:31;;;;;;;5.00;4.13;;;31.60;19.30;;;;;;5059593;28;20937;-86
2021/04/25 14:11:59;;;;;;;3.90;3.60;;;32.20;19.20;;;;;;5064059;28;20475;-83
2021/04/25 14:14:25;;;;;;;4.00;3.40;;;30.50;19.20;;;;;;5064295;28;20424;-83
2021/04/25 14:16:51;;;;;;;4.03;3.57;;;27.80;21.50;;;;;;5059749;28;20483;-83
2021/04/25 14:19:17;;;;;;;4.20;3.80;;;28.10;22.00;;;;;;5062660;28;20503;-83
2021/04/25 14:21:44;;;;;;;3.80;3.30;;;28.70;21.70;;;;;;5063300;28;20447;-83
2021/04/25 14:24:10;;;;;;;4.43;3.67;;;28.40;21.10;;;;;;5072097;28;20444;-83
2021/04/25 14:26:37;;;;;;;4.70;3.10;;;28.60;21.30;;;;;;5068351;28;20471;-84
2021/04/25 14:29:04;;;;;;;3.60;3.30;;;29.10;21.10;;;;;;5068895;28;20435;-83
2021/04/25 14:31:30;;;;;;;3.97;3.37;;;29.10;20.70;;;;;;5071350;28;20455;-82
2021/04/25 14:33:56;;;;;;;4.60;3.23;;;29.30;20.60;;;;;;5064071;28;20465;-84
2021/04/25 14:36:23;;;;;;;4.23;3.03;;;29.70;20.00;;;;;;5062401;28;20472;-84
2021/04/25 14:38:49;;;;;;;5.13;3.80;;;29.50;20.00;;;;;;5063361;28;21085;-84
2021/04/25 14:41:17;;;;;;;4.23;3.63;;;29.40;20.60;;;;;;5062453;28;20443;-83
2021/04/25 14:43:43;;;;;;;3.60;3.20;;;29.00;20.70;;;;;;5062515;28;20464;-83
2021/04/25 14:46:11;;;;;;;4.67;3.60;;;29.00;21.00;;;;;;5067577;28;20503;-84
2021/04/25 14:48:38;;;;;;;4.73;3.30;;;29.10;20.50;;;;;;5062149;28;20455;-83
2021/04/25 14:51:05;;;;;;;4.77;4.37;;;28.90;20.50;;;;;;5062456;28;20447;-84
2021/04/25 14:53:32;;;;;;;4.17;3.77;;;28.60;20.60;;;;;;5069413;28;20441;-82
2021/04/25 14:56:00;;;;;;;12.10;6.30;;;28.60;20.50;;;;;;5064692;28;20482;-82
2021/04/25 14:58:26;;;;;;;4.17;3.23;;;28.40;20.70;;;;;;5063146;28;20566;-83
2021/04/25 15:00:53;;;;;;;3.90;3.40;;;28.70;21.00;;;;;;5063925;28;20462;-82
2021/04/25 15:03:20;;;;;;;3.77;3.30;;;28.30;21.10;;;;;;5074060;28;20438;-83
2021/04/25 15:05:55;;;;;;;4.33;3.93;;;26.70;21.60;;;;;;5074427;28;20450;-83
2021/04/25 15:08:21;;;;;;;3.60;3.00;;;25.30;23.10;;;;;;5069366;28;20436;-83
2021/04/25 15:10:47;;;;;;;5.30;3.60;;;24.20;24.20;;;;;;5071400;28;20445;-84
2021/04/25 15:13:13;;;;;;;3.27;2.67;;;23.50;25.10;;;;;;5070224;28;20448;-84
2021/04/25 15:15:40;;;;;;;6.53;4.13;;;22.70;25.50;;;;;;5063302;28;20448;-84
2021/04/25 15:18:08;;;;;;;4.50;3.50;;;22.20;25.80;;;;;;5063429;28;20498;-84
2021/04/25 15:20:36;;;;;;;3.90;3.07;;;21.70;26.40;;;;;;5065906;28;20450;-83
2021/04/25 15:23:04;;;;;;;6.17;3.70;;;21.50;26.40;;;;;;5068202;28;20453;-84
2021/04/25 15:25:30;;;;;;;3.73;3.00;;;21.20;26.80;;;;;;5057574;28;20438;-83
2021/04/25 15:27:56;;;;;;;4.80;3.23;;;20.90;27.00;;;;;;5059976;28;20510;-83
2021/04/25 15:30:25;;;;;;;4.90;3.23;;;20.80;27.10;;;;;;5065763;28;20433;-83
2021/04/25 15:32:51;;;;;;;3.40;3.10;;;20.70;27.20;;;;;;5062236;28;20437;-84
2021/04/25 15:35:18;;;;;;;3.40;3.10;;;20.50;27.30;;;;;;5064561;28;20441;-84
2021/04/25 15:37:47;;;;;;;5.30;3.70;;;20.40;27.50;;;;;;5059033;28;20475;-83
2021/04/25 15:40:14;;;;;;;3.37;3.00;;;20.30;27.90;;;;;;5069500;28;20478;-83
2021/04/25 15:42:41;;;;;;;5.00;3.60;;;20.20;27.20;;;;;;5076317;28;20440;-84
2021/04/25 15:45:09;;;;;;;6.20;3.87;;;20.00;27.50;;;;;;5065168;28;20443;-83
2021/04/25 15:47:36;;;;;;;4.63;3.37;;;19.90;27.70;;;;;;5064001;28;20529;-84
2021/04/25 15:50:03;;;;;;;6.40;3.40;;;19.80;27.90;;;;;;5063826;28;20433;-83
2021/04/25 15:52:30;;;;;;;5.70;2.93;;;19.80;27.90;;;;;;5070096;28;20490;-81
2021/04/25 15:54:59;;;;;;;3.70;3.40;;;19.80;27.90;;;;;;5072756;28;20440;-83
2021/04/25 15:57:25;;;;;;;3.90;3.60;;;19.70;28.00;;;;;;5072207;28;20479;-85
2021/04/25 15:59:52;;;;;;;6.47;3.30;;;19.70;28.00;;;;;;5067432;28;20502;-83
2021/04/25 16:02:18;;;;;;;4.00;3.03;;;19.70;28.00;;;;;;5072558;28;20518;-83
2021/04/25 16:04:44;;;;;;;4.10;3.53;;;19.50;27.80;;;;;;5070896;28;20440;-84
2021/04/25 16:07:12;;;;;;;3.60;3.13;;;19.50;28.30;;;;;;5065306;28;20474;-83
2021/04/25 16:09:39;;;;;;;4.00;3.13;;;19.30;28.20;;;;;;5060243;28;20432;-83
2021/04/25 16:12:07;;;;;;;5.70;3.27;;;19.20;28.40;;;;;;5065913;28;20443;-85
2021/04/25 16:14:33;;;;;;;3.60;3.07;;;19.20;28.70;;;;;;5063266;28;20440;-82
2021/04/25 16:16:59;;;;;;;7.27;3.50;;;19.20;28.50;;;;;;5059800;28;20483;-84
2021/04/25 16:19:25;;;;;;;4.70;3.57;;;19.20;28.30;;;;;;5066784;28;21195;-83
2021/04/25 16:21:52;;;;;;;4.23;2.83;;;19.10;28.20;;;;;;5061590;28;20832;-83
2021/04/25 16:24:18;;;;;;;4.90;3.50;;;19.10;28.20;;;;;;5062047;28;20451;-83
2021/04/25 16:26:44;;;;;;;3.67;2.97;;;19.00;28.40;;;;;;5061637;28;20551;-83
2021/04/25 16:29:12;;;;;;;5.10;3.27;;;18.90;27.80;;;;;;5063182;28;20610;-83
2021/04/25 16:31:38;;;;;;;3.67;3.37;;;18.80;27.90;;;;;;5059872;28;20479;-83
2021/04/25 16:34:04;;;;;;;4.57;4.17;;;18.80;28.30;;;;;;5062324;28;20452;-84
2021/04/25 16:36:33;;;;;;;6.23;4.33;;;18.70;28.30;;;;;;5061330;28;20470;-84
2021/04/25 16:38:59;;;;;;;3.93;3.53;;;18.70;28.40;;;;;;5061690;28;20482;-83
2021/04/25 16:41:25;;;;;;;4.40;3.20;;;18.70;28.50;;;;;;5062691;28;21014;-84
2021/04/25 16:43:51;;;;;;;7.50;4.20;;;18.60;28.70;;;;;;5064477;28;20443;-84
2021/04/25 16:46:18;;;;;;;6.93;3.60;;;18.60;28.90;;;;;;5063009;28;20457;-84
2021/04/25 16:48:45;;;;;;;3.50;3.20;;;18.70;28.80;;;;;;5063920;28;20466;-83
2021/04/25 16:51:11;;;;;;;5.23;3.33;;;19.10;28.30;;;;;;5064426;28;20448;-83
2021/04/25 16:53:37;;;;;;;5.53;4.30;;;19.20;28.00;;;;;;5065419;28;20437;-83
2021/04/25 16:56:05;;;;;;;3.70;3.20;;;19.00;28.00;;;;;;5064165;28;21073;-82
2021/04/25 16:58:31;;;;;;;7.67;3.27;;;18.80;28.30;;;;;;5059731;28;20487;-83
2021/04/25 17:00:58;;;;;;;4.80;4.07;;;18.60;28.60;;;;;;5066227;28;20508;-84
2021/04/25 17:03:25;;;;;;;6.43;3.17;;;18.30;28.70;;;;;;5066779;28;20452;-83
2021/04/25 17:05:51;;;;;;;5.27;3.20;;;18.30;28.80;;;;;;5063898;28;20464;-84
2021/04/25 17:08:17;;;;;;;3.73;2.73;;;18.20;29.10;;;;;;5068347;28;20449;-85
2021/04/25 17:10:44;;;;;;;4.30;3.80;;;18.10;28.80;;;;;;5067352;28;20466;-85
2021/04/25 17:13:10;;;;;;;4.63;3.17;;;18.10;28.80;;;;;;5063250;28;20468;-84
2021/04/25 17:15:36;;;;;;;4.40;3.37;;;18.00;29.00;;;;;;5059429;28;20961;-85
2021/04/25 17:18:03;;;;;;;4.10;2.93;;;17.90;29.00;;;;;;5062402;28;20489;-85
2021/04/25 17:20:31;;;;;;;3.87;3.27;;;17.90;29.20;;;;;;5058484;28;20450;-85
2021/04/25 17:22:59;;;;;;;4.30;3.10;;;17.70;29.90;;;;;;5062020;28;20813;-84
2021/04/25 17:25:25;;;;;;;5.20;3.43;;;17.60;29.50;;;;;;5068503;28;20425;-85
2021/04/25 17:27:51;;;;;;;6.10;3.87;;;17.50;29.70;;;;;;5068920;28;20456;-84
2021/04/25 17:30:22;;;;;;;4.47;3.17;;;17.40;29.60;;;;;;5079119;28;20464;-84